Time;durP1;ratioP1;P1;durP2;ratioP2;P2;SDS_P1;SDS_P2;PMS_P1;PMS_P2;Temp;Humidity;BMP_temperature;BMP_pressure;BME280_temperature;BME280_humidity;BME280_pressure;Samples;Min_cycle;Max_cycle;Signal;HPM_P1;HPM_P2
2021/12/08 00:00:47;;;;;;;5.83;5.53;;;3.00;99.90;;;;;;4914420;29;20223;-77
2021/12/08 00:03:14;;;;;;;5.67;5.47;;;2.90;99.90;;;;;;4913447;29;20211;-77
2021/12/08 00:05:43;;;;;;;6.60;6.30;;;2.90;99.90;;;;;;4912493;29;20220;-78
2021/12/08 00:08:11;;;;;;;4.83;4.63;;;2.90;99.90;;;;;;4914318;29;20191;-77
2021/12/08 00:13:01;;;;;;;5.70;5.40;;;2.90;99.90;;;;;;4914445;29;20175;-78
2021/12/08 00:13:36;;;;;;;5.43;5.13;;;2.90;99.90;;;;;;4916249;29;20188;-77
2021/12/08 00:16:08;;;;;;;5.73;4.60;;;3.00;99.90;;;;;;4919373;29;20274;-78
2021/12/08 00:18:34;;;;;;;4.63;4.43;;;3.00;99.90;;;;;;4914536;29;20187;-78
2021/12/08 00:21:06;;;;;;;5.40;5.20;;;3.00;99.90;;;;;;4914263;29;20244;-78
2021/12/08 00:23:33;;;;;;;5.03;4.80;;;3.10;99.90;;;;;;4921625;29;20269;-78
2021/12/08 00:25:59;;;;;;;5.90;5.60;;;3.10;99.90;;;;;;4918516;29;20551;-77
2021/12/08 00:28:25;;;;;;;5.57;5.27;;;3.20;99.90;;;;;;4918305;29;20225;-76
2021/12/08 00:30:54;;;;;;;5.63;5.23;;;3.10;99.90;;;;;;4917808;29;20186;-76
2021/12/08 00:33:21;;;;;;;5.80;5.50;;;3.20;99.90;;;;;;4917119;29;20192;-76
2021/12/08 00:35:49;;;;;;;5.70;5.30;;;3.20;99.90;;;;;;4919634;29;20608;-76
2021/12/08 00:38:17;;;;;;;5.77;5.03;;;3.30;99.90;;;;;;4919982;29;20193;-76
2021/12/08 00:40:44;;;;;;;4.97;4.77;;;3.30;99.90;;;;;;4934902;29;20223;-75
2021/12/08 00:43:10;;;;;;;5.40;5.20;;;3.30;99.90;;;;;;4935723;29;20219;-75
2021/12/08 00:45:35;;;;;;;5.20;4.90;;;3.30;99.90;;;;;;4920699;29;20228;-77
2021/12/08 00:48:03;;;;;;;5.70;5.50;;;3.30;99.90;;;;;;4919118;29;20189;-77
2021/12/08 00:50:32;;;;;;;5.93;5.10;;;3.30;99.90;;;;;;4917699;29;20183;-77
2021/12/08 00:52:58;;;;;;;5.27;5.07;;;3.30;99.90;;;;;;4921428;29;20253;-77
2021/12/08 00:55:25;;;;;;;6.77;6.27;;;3.30;99.90;;;;;;4917271;29;20216;-77
2021/12/08 00:57:51;;;;;;;5.13;4.93;;;3.20;99.90;;;;;;4919040;29;20258;-76
2021/12/08 01:00:28;;;;;;;7.83;6.70;;;3.20;99.90;;;;;;4919276;29;20189;-77
2021/12/08 01:02:55;;;;;;;8.10;6.47;;;3.20;99.90;;;;;;4917031;29;20929;-77
2021/12/08 01:05:24;;;;;;;5.43;5.17;;;3.20;99.90;;;;;;4934541;29;20206;-76
2021/12/08 01:07:50;;;;;;;6.10;5.67;;;3.10;99.90;;;;;;4932242;29;20234;-75
2021/12/08 01:10:22;;;;;;;6.73;6.10;;;3.10;99.90;;;;;;4917192;29;20562;-77
2021/12/08 01:12:48;;;;;;;12.30;7.43;;;3.10;99.90;;;;;;4931973;29;20180;-76
2021/12/08 01:15:15;;;;;;;9.03;7.10;;;3.10;99.90;;;;;;4931877;29;20294;-77
2021/12/08 01:17:41;;;;;;;5.97;5.57;;;3.00;99.90;;;;;;4901650;29;20184;-75
2021/12/08 01:20:10;;;;;;;10.00;6.70;;;2.90;99.90;;;;;;4897056;29;20177;-76
2021/12/08 01:22:36;;;;;;;8.03;7.33;;;2.80;99.90;;;;;;4897326;29;20198;-77
2021/12/08 01:25:02;;;;;;;21.20;9.37;;;2.80;99.90;;;;;;4912823;29;20206;-76
2021/12/08 01:27:30;;;;;;;7.33;6.73;;;2.70;99.90;;;;;;4898230;29;20716;-76
2021/12/08 01:29:55;;;;;;;7.67;6.07;;;2.70;99.90;;;;;;4912486;29;20215;-77
2021/12/08 01:32:22;;;;;;;9.40;8.03;;;2.60;99.90;;;;;;4929930;29;20226;-76
2021/12/08 01:34:47;;;;;;;20.97;10.03;;;2.50;99.90;;;;;;4931197;29;20208;-76
2021/12/08 01:37:13;;;;;;;11.83;7.20;;;2.40;99.90;;;;;;4924179;29;20226;-76
2021/12/08 01:39:39;;;;;;;9.27;8.03;;;2.30;99.90;;;;;;4931479;29;20190;-77
2021/12/08 01:42:06;;;;;;;9.47;6.70;;;2.30;99.90;;;;;;4931526;29;20187;-77
2021/12/08 01:47:16;;;;;;;7.43;6.73;;;2.20;99.90;;;;;;4898511;29;20230;-77
2021/12/08 01:49:42;;;;;;;13.13;11.93;;;2.20;99.90;;;;;;4926944;29;20681;-77
2021/12/08 01:52:08;;;;;;;12.87;9.57;;;2.10;99.90;;;;;;4916212;29;20270;-77
2021/12/08 01:54:34;;;;;;;20.23;10.37;;;2.10;99.90;;;;;;4915450;29;20295;-77
2021/12/08 01:57:00;;;;;;;15.23;13.73;;;2.10;99.90;;;;;;4915785;29;20262;-76
2021/12/08 01:59:26;;;;;;;13.90;12.97;;;2.00;99.90;;;;;;4916568;29;20187;-75
2021/12/08 02:01:52;;;;;;;16.33;15.57;;;2.00;99.90;;;;;;4915147;29;20197;-76
2021/12/08 02:04:18;;;;;;;19.63;17.70;;;1.90;99.90;;;;;;4916151;29;20179;-76
2021/12/08 02:06:46;;;;;;;11.03;10.43;;;1.90;99.90;;;;;;4915066;29;20191;-76
2021/12/08 02:09:14;;;;;;;16.53;15.63;;;1.80;99.90;;;;;;4916117;29;20270;-77
2021/12/08 02:11:45;;;;;;;7.13;6.53;;;1.80;99.90;;;;;;4917201;29;20184;-76
2021/12/08 02:14:13;;;;;;;5.53;5.33;;;1.80;99.90;;;;;;4914799;29;20187;-77
2021/12/08 02:16:39;;;;;;;8.93;8.23;;;1.80;99.90;;;;;;4916003;29;20575;-77
2021/12/08 02:19:06;;;;;;;7.77;7.37;;;1.70;99.90;;;;;;4916169;29;20187;-77
2021/12/08 02:21:39;;;;;;;7.43;7.03;;;1.80;99.90;;;;;;4914628;29;20181;-77
2021/12/08 02:24:11;;;;;;;7.13;6.67;;;1.70;99.90;;;;;;4920714;29;20190;-77
2021/12/08 02:26:40;;;;;;;8.03;7.43;;;1.80;99.90;;;;;;4913092;29;20185;-77
2021/12/08 02:29:10;;;;;;;8.47;8.17;;;1.80;99.90;;;;;;4913235;29;20185;-77
2021/12/08 02:31:59;;;;;;;6.77;6.47;;;1.80;99.90;;;;;;4919855;29;20192;-77
2021/12/08 02:48:07;;;;;;;5.90;5.60;;;1.90;99.90;;;;;;4915765;29;20187;-77
2021/12/08 02:50:37;;;;;;;6.07;5.67;;;2.00;99.90;;;;;;4914155;29;20190;-77
2021/12/08 02:53:04;;;;;;;7.20;6.73;;;2.00;99.90;;;;;;4915781;29;20222;-77
2021/12/08 02:55:33;;;;;;;7.27;6.77;;;2.00;99.90;;;;;;4915120;29;20258;-77
2021/12/08 02:58:01;;;;;;;7.50;7.17;;;2.00;99.90;;;;;;4914768;29;20614;-77
2021/12/08 03:00:29;;;;;;;8.97;8.57;;;2.10;99.90;;;;;;4921821;29;20678;-78
2021/12/08 03:02:59;;;;;;;8.53;7.83;;;2.10;99.90;;;;;;4914740;29;20576;-78
2021/12/08 03:05:26;;;;;;;9.13;8.73;;;2.10;99.90;;;;;;4915916;29;20688;-77
2021/12/08 03:07:52;;;;;;;10.43;9.93;;;2.10;99.90;;;;;;4915785;29;20644;-77
2021/12/08 03:10:25;;;;;;;10.10;9.50;;;2.10;99.90;;;;;;4915533;29;20647;-77
2021/12/08 03:12:51;;;;;;;6.50;6.30;;;2.10;99.90;;;;;;4923688;29;20203;-77
2021/12/08 03:15:18;;;;;;;6.60;6.30;;;2.10;99.90;;;;;;4923089;29;20200;-77
2021/12/08 03:17:44;;;;;;;8.03;7.63;;;2.10;99.90;;;;;;4915805;29;20275;-78
2021/12/08 03:20:14;;;;;;;8.07;7.57;;;2.20;99.90;;;;;;4914744;29;20269;-76
2021/12/08 03:22:45;;;;;;;7.73;7.13;;;2.20;99.90;;;;;;4916298;29;20323;-77
2021/12/08 03:25:15;;;;;;;7.13;6.43;;;2.20;99.90;;;;;;4914858;29;20214;-77
2021/12/08 03:28:03;;;;;;;7.30;7.00;;;2.30;99.90;;;;;;4914954;29;20218;-77
2021/12/08 03:30:35;;;;;;;6.70;6.40;;;2.30;99.90;;;;;;4930449;29;20652;-77
2021/12/08 03:33:01;;;;;;;6.83;6.20;;;2.30;99.90;;;;;;4916181;29;20188;-77
2021/12/08 03:35:27;;;;;;;7.17;6.77;;;2.30;99.90;;;;;;4915896;29;20210;-77
2021/12/08 03:37:54;;;;;;;11.03;10.47;;;2.30;99.90;;;;;;4915723;29;20670;-78
2021/12/08 03:40:25;;;;;;;53.90;51.03;;;2.30;99.90;;;;;;4930219;29;20189;-77
2021/12/08 03:42:54;;;;;;;18.00;17.10;;;2.30;99.90;;;;;;4919524;29;20184;-78
2021/12/08 03:45:35;;;;;;;21.33;20.27;;;2.30;99.90;;;;;;4936661;23;20268;-78
2021/12/08 03:48:07;;;;;;;15.23;14.43;;;2.30;99.90;;;;;;4931527;29;20270;-78
2021/12/08 03:50:36;;;;;;;19.13;17.97;;;2.40;99.90;;;;;;4916957;29;20668;-78
2021/12/08 03:53:03;;;;;;;15.93;15.07;;;2.40;99.90;;;;;;4916716;29;20714;-78
2021/12/08 03:55:29;;;;;;;7.97;7.60;;;2.40;99.90;;;;;;4931070;29;20259;-78
2021/12/08 03:57:55;;;;;;;8.47;7.97;;;2.40;99.90;;;;;;4927953;29;20180;-76
2021/12/08 04:00:25;;;;;;;7.40;7.00;;;2.40;99.90;;;;;;4925486;29;20223;-76
2021/12/08 04:02:53;;;;;;;7.47;7.07;;;2.40;99.90;;;;;;4919319;29;20195;-77
2021/12/08 04:05:31;;;;;;;7.30;6.90;;;2.40;99.90;;;;;;4919411;29;20287;-79
2021/12/08 04:08:03;;;;;;;8.63;8.17;;;2.40;99.90;;;;;;4935288;29;20182;-78
2021/12/08 04:10:29;;;;;;;7.73;7.30;;;2.40;99.90;;;;;;4919571;29;20671;-79
2021/12/08 04:12:56;;;;;;;7.53;6.93;;;2.40;99.90;;;;;;4921361;29;20188;-79
2021/12/08 04:15:25;;;;;;;6.50;6.10;;;2.50;99.90;;;;;;4921072;29;20211;-78
2021/12/08 04:17:54;;;;;;;7.00;6.50;;;2.50;99.90;;;;;;4919606;29;20223;-78
2021/12/08 04:20:26;;;;;;;7.33;6.80;;;2.50;99.90;;;;;;4919912;29;20199;-78
2021/12/08 04:22:54;;;;;;;7.60;5.50;;;2.50;99.90;;;;;;4919763;29;20196;-78
2021/12/08 04:25:32;;;;;;;6.53;5.93;;;2.50;99.90;;;;;;4919055;29;20211;-79
2021/12/08 04:28:04;;;;;;;6.93;6.53;;;2.50;99.90;;;;;;4918671;29;20211;-78
2021/12/08 04:30:47;;;;;;;6.17;5.87;;;2.50;99.90;;;;;;4919001;29;20191;-79
2021/12/08 04:33:13;;;;;;;6.63;6.23;;;2.40;99.90;;;;;;4924072;29;20211;-79
2021/12/08 04:35:40;;;;;;;7.57;7.07;;;2.40;99.90;;;;;;4944269;29;20214;-78
2021/12/08 04:38:11;;;;;;;11.57;10.87;;;2.30;99.90;;;;;;4919455;29;20187;-79
2021/12/08 04:41:01;;;;;;;7.00;6.50;;;2.30;99.90;;;;;;4916717;29;20192;-77
2021/12/08 04:43:41;;;;;;;8.73;8.23;;;2.40;99.90;;;;;;4931600;29;20184;-78
2021/12/08 04:49:49;;;;;;;7.70;6.93;;;2.40;99.90;;;;;;4918546;29;20218;-77
2021/12/08 04:52:20;;;;;;;12.27;11.27;;;2.40;99.90;;;;;;4920005;29;20192;-76
2021/12/08 05:00:44;;;;;;;8.37;7.60;;;2.40;99.90;;;;;;4926352;29;20184;-77
2021/12/08 05:08:50;;;;;;;11.33;10.60;;;2.30;99.90;;;;;;4940052;29;20197;-77
2021/12/08 05:11:32;;;;;;;11.80;11.13;;;2.40;99.90;;;;;;4939155;29;20198;-77
2021/12/08 05:14:06;;;;;;;11.47;10.73;;;2.50;99.90;;;;;;4937493;29;20208;-77
2021/12/08 05:16:33;;;;;;;11.53;10.67;;;2.50;99.90;;;;;;4952256;29;20222;-77
2021/12/08 05:19:03;;;;;;;18.60;17.43;;;2.50;99.90;;;;;;4923215;29;20183;-78
2021/12/08 05:21:46;;;;;;;16.53;15.47;;;2.50;99.90;;;;;;4933606;29;20572;-79
2021/12/08 05:24:16;;;;;;;11.93;11.03;;;2.50;99.90;;;;;;4917210;29;20219;-77
2021/12/08 05:26:58;;;;;;;12.80;11.63;;;2.50;99.90;;;;;;4919233;29;20697;-78
2021/12/08 05:29:32;;;;;;;14.40;13.43;;;2.40;99.90;;;;;;4918842;29;20698;-78
2021/12/08 05:31:59;;;;;;;19.20;18.13;;;2.40;99.90;;;;;;4919784;29;20192;-78
2021/12/08 05:34:25;;;;;;;17.13;15.63;;;2.50;99.90;;;;;;4919638;29;20660;-78
2021/12/08 05:36:52;;;;;;;16.47;15.10;;;2.50;99.90;;;;;;4920553;29;20216;-79
2021/12/08 05:39:21;;;;;;;12.83;11.93;;;2.50;99.90;;;;;;4937335;29;20190;-79
2021/12/08 05:41:51;;;;;;;12.23;11.27;;;2.60;99.90;;;;;;4938480;29;20191;-79
2021/12/08 05:44:18;;;;;;;11.57;10.43;;;2.50;99.90;;;;;;4937843;29;20188;-79
2021/12/08 05:46:47;;;;;;;10.37;9.73;;;2.60;99.90;;;;;;4942403;29;20302;-79
2021/12/08 05:49:15;;;;;;;12.63;11.90;;;2.60;99.90;;;;;;4938510;29;20185;-78
2021/12/08 05:51:42;;;;;;;12.13;11.13;;;2.60;99.90;;;;;;4937440;29;20183;-79
2021/12/08 05:54:13;;;;;;;12.87;12.07;;;2.60;99.90;;;;;;4936831;29;20187;-79
2021/12/08 05:56:40;;;;;;;17.33;15.00;;;2.60;99.90;;;;;;4938580;29;20220;-80
2021/12/08 05:59:08;;;;;;;16.43;15.07;;;2.60;99.90;;;;;;4943571;29;20178;-79
2021/12/08 06:01:40;;;;;;;16.20;15.17;;;2.60;99.90;;;;;;4953699;28;20309;-79
2021/12/08 06:04:07;;;;;;;17.63;16.33;;;2.60;99.90;;;;;;4938651;29;20190;-79
2021/12/08 06:06:35;;;;;;;15.17;14.20;;;2.70;99.90;;;;;;4953479;29;20633;-79
2021/12/08 06:09:05;;;;;;;15.10;14.13;;;2.70;99.90;;;;;;4938465;29;20190;-79
2021/12/08 06:11:31;;;;;;;17.27;16.23;;;2.70;99.90;;;;;;4946224;29;20210;-76
2021/12/08 06:13:59;;;;;;;19.20;18.03;;;2.70;99.90;;;;;;4951819;29;20188;-77
2021/12/08 06:16:27;;;;;;;14.07;13.23;;;2.70;99.90;;;;;;4968512;28;20218;-76
2021/12/08 06:18:53;;;;;;;14.43;13.43;;;2.70;99.90;;;;;;4962958;28;20186;-76
2021/12/08 06:21:25;;;;;;;14.70;13.47;;;2.70;99.90;;;;;;4934451;29;20184;-68
2021/12/08 06:23:52;;;;;;;13.60;12.47;;;2.70;99.90;;;;;;4934394;29;20653;-69
2021/12/08 06:26:21;;;;;;;13.73;12.73;;;2.70;99.90;;;;;;4935422;29;20230;-69
2021/12/08 06:28:47;;;;;;;16.27;15.17;;;2.80;99.90;;;;;;4935032;29;20196;-69
2021/12/08 06:31:14;;;;;;;16.67;15.37;;;2.80;99.90;;;;;;4934340;29;20192;-69
2021/12/08 06:33:40;;;;;;;16.17;14.70;;;2.70;99.90;;;;;;4934684;29;20242;-69
2021/12/08 06:36:14;;;;;;;15.47;14.40;;;2.70;99.90;;;;;;4934335;29;20311;-69
2021/12/08 06:38:41;;;;;;;21.40;19.83;;;2.80;99.90;;;;;;4934623;29;20184;-69
2021/12/08 06:41:13;;;;;;;21.30;19.93;;;2.80;99.90;;;;;;4934279;29;20684;-70
2021/12/08 06:43:43;;;;;;;24.10;22.20;;;2.80;99.90;;;;;;4933144;29;20183;-70
2021/12/08 06:46:09;;;;;;;17.33;16.20;;;2.80;99.90;;;;;;4934352;29;20220;-70
2021/12/08 06:48:40;;;;;;;19.10;17.90;;;2.80;99.90;;;;;;4933572;29;20655;-71
2021/12/08 06:51:11;;;;;;;18.53;17.30;;;2.80;99.90;;;;;;4933815;29;20186;-70
2021/12/08 06:53:37;;;;;;;17.70;16.70;;;2.90;99.90;;;;;;4949259;29;20245;-70
2021/12/08 06:56:13;;;;;;;27.00;25.40;;;2.90;99.90;;;;;;4916416;29;20273;-70
2021/12/08 06:58:41;;;;;;;36.27;34.23;;;2.90;99.90;;;;;;4915250;29;20178;-70
2021/12/08 07:04:07;;;;;;;31.93;29.37;;;2.80;99.90;;;;;;4915321;29;20556;-70
2021/12/08 07:09:13;;;;;;;25.17;23.50;;;2.90;99.90;;;;;;4915428;29;20671;-70
2021/12/08 07:11:41;;;;;;;26.50;24.33;;;3.00;99.90;;;;;;4914744;29;20646;-70
2021/12/08 07:14:08;;;;;;;33.50;31.60;;;3.00;99.90;;;;;;4914922;29;20768;-70
2021/12/08 07:16:40;;;;;;;20.67;18.67;;;3.00;99.90;;;;;;4914997;29;20305;-70
2021/12/08 07:19:24;;;;;;;19.90;18.77;;;3.00;99.90;;;;;;4913945;29;20852;-70
2021/12/08 07:21:52;;;;;;;20.27;18.90;;;3.00;99.90;;;;;;4914205;29;20267;-70
2021/12/08 07:24:29;;;;;;;11.70;10.70;;;3.00;99.90;;;;;;4915197;29;20184;-70
2021/12/08 07:27:01;;;;;;;10.20;9.20;;;3.00;99.90;;;;;;4915072;29;20187;-70
2021/12/08 07:29:31;;;;;;;26.77;25.23;;;3.10;99.90;;;;;;4914871;29;20689;-70
2021/12/08 07:32:03;;;;;;;35.07;33.07;;;3.10;99.90;;;;;;4912857;29;20279;-70
2021/12/08 07:34:31;;;;;;;43.17;40.60;;;3.20;99.90;;;;;;4914729;29;20219;-70
2021/12/08 07:37:04;;;;;;;15.10;14.17;;;3.20;99.90;;;;;;4914841;29;20210;-70
2021/12/08 07:39:33;;;;;;;30.03;28.37;;;3.20;99.90;;;;;;4913244;29;20300;-70
2021/12/08 07:42:10;;;;;;;15.30;14.30;;;3.20;99.90;;;;;;4914527;29;20192;-70
2021/12/08 07:44:36;;;;;;;9.47;8.53;;;3.20;99.90;;;;;;4914718;29;20183;-70
2021/12/08 07:47:08;;;;;;;14.30;13.30;;;3.20;99.90;;;;;;4914823;29;20198;-70
2021/12/08 07:49:39;;;;;;;17.60;15.90;;;3.30;99.90;;;;;;4914293;29;20183;-70
2021/12/08 07:52:18;;;;;;;14.13;13.23;;;3.30;99.90;;;;;;4915107;29;20669;-70
2021/12/08 07:54:46;;;;;;;12.47;11.37;;;3.40;99.90;;;;;;4922660;29;20188;-70
2021/12/08 07:57:19;;;;;;;11.70;10.70;;;3.40;99.90;;;;;;4948263;28;20237;-67
2021/12/08 07:59:49;;;;;;;9.87;8.40;;;3.50;99.90;;;;;;4948356;29;20658;-67
2021/12/08 08:02:16;;;;;;;9.40;8.40;;;3.60;99.90;;;;;;4933526;29;20229;-67
2021/12/08 08:04:45;;;;;;;9.70;8.87;;;3.70;99.90;;;;;;4933305;29;20182;-67
2021/12/08 08:07:13;;;;;;;9.67;8.80;;;3.70;99.90;;;;;;4933180;29;20807;-67
2021/12/08 08:09:43;;;;;;;8.20;7.60;;;3.80;99.90;;;;;;4932847;29;20303;-67
2021/12/08 08:12:15;;;;;;;13.53;8.27;;;3.80;99.90;;;;;;4932790;29;20204;-67
2021/12/08 08:14:48;;;;;;;9.37;8.37;;;3.80;99.90;;;;;;4933123;29;20200;-67
2021/12/08 08:17:18;;;;;;;7.63;7.03;;;3.70;99.90;;;;;;4933043;29;20215;-67
2021/12/08 08:19:47;;;;;;;8.57;7.97;;;3.70;99.90;;;;;;4932910;29;20280;-69
2021/12/08 08:22:24;;;;;;;10.30;9.47;;;3.70;99.90;;;;;;4933056;29;20514;-70
2021/12/08 08:24:56;;;;;;;12.93;12.00;;;3.80;99.90;;;;;;4932325;29;20215;-71
2021/12/08 08:27:23;;;;;;;12.10;11.10;;;3.80;99.90;;;;;;4948226;29;20187;-71
2021/12/08 08:29:49;;;;;;;15.67;11.37;;;3.80;99.90;;;;;;4931484;29;20199;-70
2021/12/08 08:32:24;;;;;;;10.67;9.97;;;3.90;99.90;;;;;;4933036;29;20279;-70
2021/12/08 08:34:55;;;;;;;12.50;10.80;;;3.90;99.90;;;;;;4930657;29;20211;-71
2021/12/08 08:37:21;;;;;;;15.90;14.50;;;3.90;99.90;;;;;;4932046;29;20333;-70
2021/12/08 08:39:51;;;;;;;14.57;13.43;;;4.00;99.90;;;;;;4932751;29;20188;-70
2021/12/08 08:42:25;;;;;;;19.67;18.47;;;4.00;99.90;;;;;;4932017;29;20186;-71
2021/12/08 08:45:12;;;;;;;22.90;21.17;;;4.00;99.90;;;;;;4934765;29;20207;-71
2021/12/08 08:47:51;;;;;;;17.57;16.57;;;4.00;99.90;;;;;;4936288;29;20212;-69
2021/12/08 08:50:26;;;;;;;18.53;17.40;;;4.10;99.90;;;;;;4936103;29;20552;-71
2021/12/08 08:52:55;;;;;;;18.60;17.43;;;4.20;99.90;;;;;;4936338;29;20193;-71
2021/12/08 08:55:28;;;;;;;19.93;18.67;;;4.20;99.90;;;;;;4936227;29;20216;-71
2021/12/08 08:57:54;;;;;;;17.70;16.67;;;4.30;99.90;;;;;;4936252;29;20297;-71
2021/12/08 09:00:32;;;;;;;13.13;12.13;;;4.30;99.90;;;;;;4936118;29;20236;-71
2021/12/08 09:03:06;;;;;;;12.43;11.33;;;4.30;99.90;;;;;;4937045;29;20230;-71
2021/12/08 09:05:43;;;;;;;13.17;12.03;;;4.40;99.90;;;;;;4936606;29;20295;-71
2021/12/08 09:08:10;;;;;;;11.53;10.40;;;4.40;99.90;;;;;;4936066;29;20335;-72
2021/12/08 09:10:48;;;;;;;11.90;10.90;;;4.50;99.90;;;;;;4935704;29;20271;-71
2021/12/08 09:13:35;;;;;;;11.27;10.30;;;4.50;99.90;;;;;;4935861;29;20206;-71
2021/12/08 09:16:15;;;;;;;14.47;13.07;;;4.50;99.90;;;;;;4934672;29;20225;-71
2021/12/08 09:18:52;;;;;;;12.90;11.73;;;4.50;99.90;;;;;;4935669;29;20563;-71
2021/12/08 09:21:42;;;;;;;13.03;12.20;;;4.50;99.90;;;;;;4935924;29;20182;-71
2021/12/08 09:24:16;;;;;;;15.70;14.67;;;4.60;99.90;;;;;;4936195;29;20194;-71
2021/12/08 09:26:46;;;;;;;18.53;17.23;;;4.60;99.90;;;;;;4935264;29;20222;-71
2021/12/08 09:29:18;;;;;;;19.40;17.97;;;4.60;99.90;;;;;;4936144;29;20196;-71
2021/12/08 09:32:03;;;;;;;21.10;19.80;;;4.60;99.90;;;;;;4935091;29;20188;-71
2021/12/08 09:34:38;;;;;;;13.03;12.13;;;4.60;99.90;;;;;;4950531;29;20195;-71
2021/12/08 09:37:10;;;;;;;10.03;9.10;;;4.60;99.90;;;;;;4935755;29;20207;-70
2021/12/08 09:39:38;;;;;;;10.20;9.30;;;4.60;99.90;;;;;;4933938;29;20195;-70
2021/12/08 09:42:20;;;;;;;10.83;9.70;;;4.60;99.90;;;;;;4935370;29;20549;-70
2021/12/08 09:47:20;;;;;;;10.47;8.87;;;4.60;99.90;;;;;;4894674;29;20585;-74
2021/12/08 09:49:47;;;;;;;12.20;11.10;;;4.70;99.90;;;;;;4897392;29;20188;-74
2021/12/08 09:52:16;;;;;;;10.57;9.57;;;4.70;99.90;;;;;;4896268;29;20193;-73
2021/12/08 09:54:42;;;;;;;9.27;8.47;;;4.80;99.90;;;;;;4896052;29;20269;-73
2021/12/08 09:57:12;;;;;;;8.30;7.70;;;4.80;99.90;;;;;;4897511;29;20782;-73
2021/12/08 09:59:45;;;;;;;9.30;8.40;;;4.80;99.90;;;;;;4897329;29;20187;-74
2021/12/08 10:02:14;;;;;;;9.67;8.87;;;4.80;99.90;;;;;;4897458;29;20225;-76
2021/12/08 10:04:39;;;;;;;9.87;8.97;;;4.80;99.90;;;;;;4896673;29;20615;-75
2021/12/08 10:07:06;;;;;;;10.07;8.47;;;4.80;99.90;;;;;;4897427;29;20308;-76
2021/12/08 10:09:32;;;;;;;8.80;8.10;;;4.80;99.90;;;;;;4897395;29;20195;-76
2021/12/08 10:11:58;;;;;;;9.33;8.43;;;4.80;99.90;;;;;;4897378;29;20195;-76
2021/12/08 10:14:25;;;;;;;10.40;8.63;;;4.80;99.90;;;;;;4896189;29;20195;-76
2021/12/08 10:16:53;;;;;;;9.40;8.50;;;4.70;99.90;;;;;;4897356;29;20276;-75
2021/12/08 10:19:19;;;;;;;8.83;8.13;;;4.70;99.90;;;;;;4897350;29;20791;-75
2021/12/08 10:21:47;;;;;;;9.67;8.77;;;4.70;99.90;;;;;;4897153;29;20663;-76
2021/12/08 10:24:26;;;;;;;9.20;8.40;;;4.80;99.90;;;;;;4889358;29;20264;-76
2021/12/08 10:27:02;;;;;;;11.57;8.60;;;4.80;99.90;;;;;;4893413;29;21059;-75
2021/12/08 10:29:29;;;;;;;11.63;9.13;;;4.80;99.90;;;;;;4884083;29;20226;-75
2021/12/08 10:31:56;;;;;;;8.93;7.90;;;4.80;99.90;;;;;;4913129;29;20284;-76
2021/12/08 10:34:28;;;;;;;9.63;7.77;;;4.90;99.90;;;;;;4914104;29;20195;-75
2021/12/08 10:37:10;;;;;;;9.10;8.10;;;4.90;99.90;;;;;;4913936;29;20231;-76
2021/12/08 10:39:35;;;;;;;10.03;9.13;;;4.90;99.90;;;;;;4915306;29;20676;-75
2021/12/08 10:42:11;;;;;;;9.87;9.07;;;4.90;99.90;;;;;;4914735;29;20186;-77
2021/12/08 10:45:21;;;;;;;9.93;9.03;;;4.80;99.90;;;;;;4896575;29;20193;-76
2021/12/08 10:47:48;;;;;;;12.83;11.53;;;4.90;99.90;;;;;;4892766;29;20195;-76
2021/12/08 10:56:04;;;;;;;10.60;9.53;;;5.00;99.90;;;;;;4915319;29;20254;-76
2021/12/08 10:58:32;;;;;;;11.00;9.87;;;5.00;99.90;;;;;;4915068;29;20569;-76
2021/12/08 11:01:12;;;;;;;10.17;9.20;;;5.10;99.90;;;;;;4908606;29;20178;-76
2021/12/08 11:03:39;;;;;;;10.83;9.27;;;5.10;99.90;;;;;;4896365;29;20186;-76
2021/12/08 11:06:07;;;;;;;12.87;10.53;;;5.10;99.90;;;;;;4894505;29;20209;-76
2021/12/08 11:08:38;;;;;;;11.63;10.43;;;5.10;99.90;;;;;;4895786;29;20190;-76
2021/12/08 11:11:22;;;;;;;10.00;9.07;;;5.10;99.90;;;;;;4896377;29;20189;-76
2021/12/08 11:13:51;;;;;;;9.97;8.97;;;5.10;99.90;;;;;;4896281;29;20283;-76
2021/12/08 11:16:30;;;;;;;9.27;8.47;;;5.20;99.90;;;;;;4896186;29;20229;-76
2021/12/08 11:19:09;;;;;;;9.50;8.70;;;5.20;99.90;;;;;;4895817;29;20209;-77
2021/12/08 11:21:41;;;;;;;9.13;8.33;;;5.30;99.90;;;;;;4895792;29;20238;-76
2021/12/08 11:24:13;;;;;;;10.80;9.73;;;5.30;99.90;;;;;;4896050;29;20297;-76
2021/12/08 11:26:43;;;;;;;10.07;9.10;;;5.30;99.90;;;;;;4895966;29;20221;-76
2021/12/08 11:29:14;;;;;;;13.73;12.63;;;5.30;99.90;;;;;;4896187;29;20197;-77
2021/12/08 11:31:56;;;;;;;18.30;16.97;;;5.30;99.90;;;;;;4894424;29;20625;-76
2021/12/08 11:34:29;;;;;;;16.00;14.77;;;5.30;99.90;;;;;;4894767;29;20512;-77
2021/12/08 11:37:03;;;;;;;17.47;16.10;;;5.40;99.90;;;;;;4897755;29;20316;-77
2021/12/08 11:39:32;;;;;;;15.70;14.53;;;5.40;99.90;;;;;;4914433;29;20191;-76
2021/12/08 11:42:12;;;;;;;14.53;13.37;;;5.40;99.90;;;;;;4914220;29;20622;-76
2021/12/08 11:44:41;;;;;;;13.03;12.03;;;5.40;99.90;;;;;;4914466;29;20193;-76
2021/12/08 11:47:20;;;;;;;11.40;10.30;;;5.30;99.90;;;;;;4913454;29;20249;-76
2021/12/08 11:49:52;;;;;;;10.77;9.83;;;5.30;99.90;;;;;;4913856;29;20192;-76
2021/12/08 11:52:23;;;;;;;12.77;10.20;;;5.20;99.90;;;;;;4914499;29;20203;-76
2021/12/08 11:55:16;;;;;;;16.07;14.87;;;5.30;99.90;;;;;;4914583;29;20188;-76
2021/12/08 11:57:46;;;;;;;20.77;19.27;;;5.30;99.90;;;;;;4912045;29;20270;-76
2021/12/08 12:00:32;;;;;;;23.13;21.73;;;5.30;99.90;;;;;;4913140;29;20666;-76
2021/12/08 12:03:02;;;;;;;21.77;20.27;;;5.40;99.90;;;;;;4914579;29;20196;-77
2021/12/08 12:05:33;;;;;;;24.03;22.47;;;5.40;99.90;;;;;;4912839;29;20214;-77
2021/12/08 12:08:01;;;;;;;23.90;22.23;;;5.50;99.90;;;;;;4897272;29;20205;-77
2021/12/08 12:10:30;;;;;;;25.53;23.90;;;5.50;99.90;;;;;;4892306;29;20192;-77
2021/12/08 12:12:57;;;;;;;24.57;22.93;;;5.40;99.90;;;;;;4895472;29;20249;-76
2021/12/08 12:15:24;;;;;;;22.70;21.27;;;5.40;99.90;;;;;;4895435;29;20210;-77
2021/12/08 12:17:50;;;;;;;29.33;27.23;;;5.40;99.90;;;;;;4895891;29;20218;-77
2021/12/08 12:20:21;;;;;;;29.00;27.20;;;5.40;99.90;;;;;;4899092;29;20280;-77
2021/12/08 12:23:11;;;;;;;27.77;26.07;;;5.40;99.90;;;;;;4897993;29;20191;-76
2021/12/08 12:26:03;;;;;;;22.13;20.57;;;5.40;99.90;;;;;;4899153;29;20259;-77
2021/12/08 12:29:06;;;;;;;21.07;19.57;;;5.40;99.90;;;;;;4898333;29;20201;-76
2021/12/08 12:31:44;;;;;;;19.33;17.83;;;5.40;99.90;;;;;;4897798;29;20185;-77
2021/12/08 12:34:32;;;;;;;19.40;17.63;;;5.40;99.90;;;;;;4899275;29;20189;-76
2021/12/08 12:37:04;;;;;;;21.23;19.43;;;5.40;99.90;;;;;;4899020;29;20222;-76
2021/12/08 12:39:31;;;;;;;21.70;20.00;;;5.40;99.90;;;;;;4898694;29;20185;-76
2021/12/08 12:42:00;;;;;;;23.13;21.40;;;5.40;99.90;;;;;;4898887;29;20181;-76
2021/12/08 12:44:29;;;;;;;24.83;23.00;;;5.40;99.90;;;;;;4898718;29;20182;-76
2021/12/08 12:47:12;;;;;;;21.60;19.77;;;5.40;99.90;;;;;;4899556;29;20226;-75
2021/12/08 12:49:41;;;;;;;19.90;18.33;;;5.40;99.90;;;;;;4898669;29;20196;-75
2021/12/08 12:52:09;;;;;;;24.20;22.40;;;5.40;99.90;;;;;;4897660;29;20190;-75
2021/12/08 12:54:35;;;;;;;25.83;24.00;;;5.40;99.90;;;;;;4897749;29;20208;-75
2021/12/08 12:57:06;;;;;;;28.10;25.93;;;5.40;99.90;;;;;;4897530;29;20250;-75
2021/12/08 12:59:44;;;;;;;26.43;24.53;;;5.50;99.90;;;;;;4897486;29;20277;-76
2021/12/08 13:02:27;;;;;;;26.37;24.47;;;5.40;99.90;;;;;;4897450;29;20214;-76
2021/12/08 13:04:58;;;;;;;21.20;19.57;;;5.50;99.90;;;;;;4899089;29;20211;-76
2021/12/08 13:07:29;;;;;;;23.53;21.70;;;5.40;99.90;;;;;;4898837;29;20191;-74
2021/12/08 13:10:15;;;;;;;22.40;20.80;;;5.40;99.90;;;;;;4899430;29;20572;-76
2021/12/08 13:12:42;;;;;;;19.10;17.77;;;5.40;99.90;;;;;;4913447;29;20201;-76
2021/12/08 13:15:08;;;;;;;20.80;19.27;;;5.40;99.90;;;;;;4908734;29;20194;-77
2021/12/08 13:17:35;;;;;;;24.83;23.13;;;5.40;99.90;;;;;;4898289;29;20221;-77
2021/12/08 13:20:10;;;;;;;20.13;18.33;;;5.40;99.90;;;;;;4896819;29;20274;-77
2021/12/08 13:22:55;;;;;;;16.90;15.03;;;5.40;99.90;;;;;;4897195;29;20182;-77
2021/12/08 13:28:12;;;;;;;23.90;22.13;;;5.50;99.90;;;;;;4897861;29;20730;-76
2021/12/08 13:30:52;;;;;;;27.40;25.70;;;5.50;99.90;;;;;;4895487;29;20215;-76
2021/12/08 13:33:33;;;;;;;26.67;24.93;;;5.50;99.90;;;;;;4896640;29;20648;-75
2021/12/08 13:36:21;;;;;;;25.60;23.73;;;5.50;99.90;;;;;;4896507;29;20229;-75
2021/12/08 13:39:30;;;;;;;24.77;23.10;;;5.50;99.90;;;;;;4896995;29;20580;-75
2021/12/08 13:42:28;;;;;;;16.67;15.17;;;5.40;99.90;;;;;;4899417;29;20194;-75
2021/12/08 13:44:57;;;;;;;15.93;14.77;;;5.30;99.90;;;;;;4897954;29;20188;-74
2021/12/08 13:47:30;;;;;;;17.40;16.00;;;5.30;99.90;;;;;;4896626;29;20281;-74
2021/12/08 13:50:03;;;;;;;21.17;19.70;;;5.30;99.90;;;;;;4897416;29;20289;-74
2021/12/08 13:52:35;;;;;;;35.47;32.83;;;5.30;99.90;;;;;;4897481;29;20541;-75
2021/12/08 13:55:14;;;;;;;21.10;19.63;;;5.30;99.90;;;;;;4894158;29;20198;-74